createdAt,value
2018-11-04T00:01:19.832Z,8.53
2018-11-04T00:03:44.916Z,8.17
2018-11-04T00:06:10.013Z,8.03
2018-11-04T00:08:35.105Z,9.57
2018-11-04T00:11:00.192Z,9.37
2018-11-04T00:13:25.487Z,10.07
2018-11-04T00:21:03.002Z,11.07
2018-11-04T00:23:28.095Z,10.90
2018-11-04T00:25:53.244Z,11.70
2018-11-04T00:28:18.386Z,11.50
2018-11-04T00:30:43.466Z,11.17
2018-11-04T00:33:08.560Z,11.27
2018-11-04T00:35:33.654Z,11.33
2018-11-04T00:37:58.795Z,13.60
2018-11-04T00:40:23.899Z,11.57
2018-11-04T00:42:49.001Z,11.50
2018-11-04T00:45:14.197Z,11.23
2018-11-04T00:47:42.107Z,11.90
2018-11-04T00:50:09.881Z,11.60
2018-11-04T00:52:35.119Z,11.43
2018-11-04T00:55:00.236Z,12.37
2018-11-04T00:57:25.319Z,11.90
2018-11-04T00:59:50.440Z,12.83
2018-11-04T01:02:15.568Z,12.77
2018-11-04T01:04:40.647Z,12.90
2018-11-04T01:07:06.059Z,12.97
2018-11-04T01:09:31.139Z,12.90
2018-11-04T01:11:56.307Z,12.27
2018-11-04T01:14:21.360Z,12.40
2018-11-04T01:16:46.431Z,13.60
2018-11-04T01:19:11.531Z,12.33
2018-11-04T01:24:15.948Z,12.83
2018-11-04T01:26:41.092Z,12.33
2018-11-04T01:29:06.581Z,12.67
2018-11-04T01:31:31.665Z,13.10
2018-11-04T01:33:56.768Z,12.33
2018-11-04T01:36:21.897Z,11.80
2018-11-04T01:38:48.772Z,12.33
2018-11-04T01:41:13.848Z,12.93
2018-11-04T01:43:38.979Z,12.07
2018-11-04T01:46:04.134Z,11.50
2018-11-04T01:48:29.252Z,11.93
2018-11-04T01:50:54.340Z,12.20
2018-11-04T01:53:19.468Z,11.97
2018-11-04T01:55:44.559Z,12.40
2018-11-04T01:58:09.608Z,11.93
2018-11-04T02:00:34.695Z,11.63
2018-11-04T02:02:59.809Z,11.20
2018-11-04T02:05:24.936Z,10.90
2018-11-04T02:07:50.019Z,11.97
2018-11-04T02:10:15.591Z,11.80
2018-11-04T02:12:40.726Z,11.13
2018-11-04T02:15:06.202Z,11.67
2018-11-04T02:17:31.281Z,11.90
2018-11-04T02:19:56.388Z,12.70
2018-11-04T02:22:22.428Z,11.90
2018-11-04T02:24:47.513Z,11.90
2018-11-04T02:27:12.688Z,11.53
2018-11-04T02:29:56.796Z,12.03
2018-11-04T02:32:22.237Z,11.70
2018-11-04T02:34:47.383Z,12.27
2018-11-04T02:37:12.459Z,11.73
2018-11-04T02:39:37.589Z,12.03
2018-11-04T02:42:03.052Z,12.40
2018-11-04T02:44:28.145Z,12.37
2018-11-04T02:46:53.360Z,13.13
2018-11-04T02:49:18.351Z,11.50
2018-11-04T02:51:43.567Z,12.57
2018-11-04T02:54:08.610Z,12.83
2018-11-04T02:56:33.699Z,12.63
2018-11-04T02:58:58.802Z,13.27
2018-11-04T03:03:59.975Z,12.13
2018-11-04T03:06:25.082Z,12.73
2018-11-04T03:08:50.154Z,12.53
2018-11-04T03:11:15.274Z,13.90
2018-11-04T03:13:40.372Z,12.77
2018-11-04T03:16:05.553Z,13.80
2018-11-04T03:18:30.620Z,12.90
2018-11-04T03:20:55.698Z,13.67
2018-11-04T03:23:20.808Z,13.53
2018-11-04T03:25:45.903Z,14.33
2018-11-04T03:28:11.666Z,13.67
2018-11-04T03:30:36.763Z,13.73
2018-11-04T03:33:01.828Z,14.23
2018-11-04T03:35:26.930Z,15.30
2018-11-04T03:37:52.022Z,14.07
2018-11-04T03:40:17.154Z,14.20
2018-11-04T03:42:42.633Z,13.80
2018-11-04T03:45:08.001Z,14.63
2018-11-04T03:47:33.083Z,14.00
2018-11-04T03:50:00.402Z,14.07
2018-11-04T03:52:25.528Z,14.80
2018-11-04T03:54:50.633Z,14.60
2018-11-04T03:57:15.721Z,14.40
2018-11-04T03:59:40.848Z,15.00
2018-11-04T04:02:06.204Z,15.00
2018-11-04T04:04:31.306Z,13.97
2018-11-04T04:06:56.382Z,14.30
2018-11-04T04:09:21.485Z,15.10
2018-11-04T04:11:46.613Z,14.87
2018-11-04T04:14:11.674Z,16.03
2018-11-04T04:16:36.759Z,14.70
2018-11-04T04:21:38.094Z,15.10
2018-11-04T04:24:03.146Z,15.27
2018-11-04T04:26:28.224Z,14.93
2018-11-04T04:31:30.024Z,15.00
2018-11-04T04:33:55.126Z,15.83
2018-11-04T04:36:20.223Z,15.27
2018-11-04T04:38:56.968Z,16.23
2018-11-04T04:41:22.059Z,16.23
2018-11-04T04:43:47.136Z,16.20
2018-11-04T04:46:13.068Z,15.43
2018-11-04T04:51:51.695Z,15.87
2018-11-04T05:06:12.711Z,16.03
2018-11-04T05:08:41.191Z,17.17
2018-11-04T05:11:06.237Z,16.40
2018-11-04T05:13:31.354Z,16.87
2018-11-04T05:15:56.441Z,16.13
2018-11-04T05:18:21.525Z,16.17
2018-11-04T05:20:46.629Z,16.67
2018-11-04T05:23:11.706Z,17.37
2018-11-04T05:28:15.667Z,16.83
2018-11-04T05:30:40.788Z,16.07
2018-11-04T05:33:06.118Z,16.93
2018-11-04T05:35:31.204Z,16.80
2018-11-04T05:37:56.258Z,16.20
2018-11-04T05:40:21.356Z,16.60
2018-11-04T05:42:46.433Z,16.47
2018-11-04T05:45:11.555Z,17.03
2018-11-04T05:47:36.663Z,16.47
2018-11-04T05:50:01.777Z,16.53
2018-11-04T05:52:26.863Z,17.03
2018-11-04T05:55:10.890Z,16.07
2018-11-04T05:57:54.973Z,16.93
2018-11-04T06:00:39.032Z,16.50
2018-11-04T06:03:04.114Z,16.17
2018-11-04T06:05:29.196Z,18.00
2018-11-04T06:07:54.290Z,16.53
2018-11-04T06:10:38.347Z,16.50
2018-11-04T06:13:03.416Z,17.10
2018-11-04T06:15:47.557Z,17.20
2018-11-04T06:18:12.574Z,17.00
2018-11-04T06:20:37.645Z,17.30
2018-11-04T06:23:02.750Z,17.73
2018-11-04T06:25:27.813Z,18.40
2018-11-04T06:28:11.866Z,18.77
2018-11-04T06:30:55.921Z,18.27
2018-11-04T06:33:21.045Z,17.93
2018-11-04T06:35:46.124Z,18.50
2018-11-04T06:38:11.205Z,19.00
2018-11-04T06:40:36.285Z,19.13
2018-11-04T06:43:01.371Z,19.43
2018-11-04T06:45:26.462Z,19.87
2018-11-04T06:47:51.536Z,19.97
2018-11-04T06:50:16.725Z,21.37
2018-11-04T06:52:42.327Z,21.83
2018-11-04T06:55:08.643Z,20.60
2018-11-04T06:57:33.716Z,22.00
2018-11-04T06:59:58.851Z,23.27
2018-11-04T07:02:23.929Z,22.80
2018-11-04T07:04:49.022Z,23.73
2018-11-04T07:07:14.124Z,23.13
2018-11-04T07:09:39.214Z,23.40
2018-11-04T07:12:04.283Z,23.53
2018-11-04T07:14:29.379Z,24.77
2018-11-04T07:16:54.524Z,23.13
2018-11-04T07:19:19.592Z,24.70
2018-11-04T07:21:44.726Z,24.80
2018-11-04T07:24:09.869Z,24.40
2018-11-04T07:26:54.042Z,26.17
2018-11-04T07:29:19.138Z,25.23
2018-11-04T07:31:44.206Z,27.37
2018-11-04T07:34:09.372Z,25.37
2018-11-04T07:36:34.540Z,25.97
2018-11-04T07:38:59.768Z,28.80
2018-11-04T07:41:24.893Z,27.77
2018-11-04T07:43:50.266Z,26.03
2018-11-04T07:46:15.473Z,27.50
2018-11-04T07:48:40.612Z,27.80
2018-11-04T07:51:05.765Z,28.17
2018-11-04T07:53:30.896Z,27.87
2018-11-04T07:55:55.956Z,27.07
2018-11-04T07:58:21.099Z,28.97
2018-11-04T08:00:46.205Z,27.47
2018-11-04T08:03:11.408Z,28.07
2018-11-04T08:05:36.493Z,27.73
2018-11-04T08:08:01.567Z,29.50
2018-11-04T08:10:26.668Z,27.13
2018-11-04T08:12:51.786Z,29.30
2018-11-04T08:15:17.036Z,29.30
2018-11-04T08:17:42.157Z,29.00
2018-11-04T08:20:07.862Z,30.63
2018-11-04T08:22:33.078Z,30.20
2018-11-04T08:25:05.736Z,28.70
2018-11-04T08:27:30.908Z,29.13
2018-11-04T08:29:55.980Z,29.63
2018-11-04T08:32:21.101Z,30.33
2018-11-04T08:34:46.238Z,30.33
2018-11-04T08:37:11.329Z,30.93
2018-11-04T08:39:36.548Z,29.57
2018-11-04T08:42:01.655Z,30.67
2018-11-04T08:44:26.782Z,30.50
2018-11-04T08:46:51.901Z,29.47
2018-11-04T08:49:17.020Z,29.90
2018-11-04T08:51:42.195Z,29.33
2018-11-04T08:54:26.457Z,29.23
2018-11-04T08:56:51.635Z,29.37
2018-11-04T08:59:16.728Z,31.73
2018-11-04T09:01:41.834Z,30.83
2018-11-04T09:06:43.678Z,31.37
2018-11-04T09:09:08.848Z,32.50
2018-11-04T09:11:33.935Z,30.23
2018-11-04T09:13:59.043Z,31.27
2018-11-04T09:16:24.123Z,31.83
2018-11-04T09:18:49.205Z,30.67
2018-11-04T09:21:14.385Z,31.47
2018-11-04T09:23:39.592Z,32.37
2018-11-04T09:26:04.626Z,31.00
2018-11-04T09:28:29.751Z,30.63
2018-11-04T09:30:54.865Z,31.37
2018-11-04T09:33:38.993Z,29.90
2018-11-04T09:36:04.226Z,30.53
2018-11-04T09:38:29.278Z,30.70
2018-11-04T09:40:54.423Z,30.87
2018-11-04T09:43:19.550Z,29.87
2018-11-04T09:45:44.654Z,30.50
2018-11-04T09:48:09.794Z,30.23
2018-11-04T09:50:53.979Z,30.27
2018-11-04T09:53:22.487Z,29.97
2018-11-04T09:55:48.285Z,31.17
2018-11-04T09:58:13.515Z,31.33
2018-11-04T10:03:26.918Z,30.80
2018-11-04T10:05:52.033Z,32.83
2018-11-04T10:08:17.210Z,32.57
2018-11-04T10:10:46.209Z,33.73
2018-11-04T10:13:11.825Z,32.97
2018-11-04T10:15:56.698Z,33.83
2018-11-04T10:18:21.840Z,32.50
2018-11-04T10:20:47.596Z,33.00
2018-11-04T10:28:27.914Z,33.90
2018-11-04T10:30:53.214Z,34.77
2018-11-04T10:33:18.449Z,33.67
2018-11-04T10:35:44.716Z,34.90
2018-11-04T10:38:10.819Z,34.90
2018-11-04T10:40:36.430Z,35.70
2018-11-04T10:43:01.669Z,33.80
2018-11-04T10:45:26.880Z,34.27
2018-11-04T10:47:53.914Z,32.60
2018-11-04T10:50:22.015Z,33.23
2018-11-04T10:52:47.191Z,34.23
2018-11-04T10:55:12.470Z,36.93
2018-11-04T10:57:37.630Z,34.63
2018-11-04T11:00:02.854Z,33.87
2018-11-04T11:02:27.972Z,34.40
2018-11-04T11:04:53.082Z,34.67
2018-11-04T11:07:18.269Z,34.10
2018-11-04T11:09:43.337Z,33.17
2018-11-04T11:12:08.545Z,35.43
2018-11-04T11:14:33.831Z,32.27
2018-11-04T11:16:59.016Z,33.57
2018-11-04T11:19:24.263Z,34.17
2018-11-04T11:21:49.357Z,33.60
2018-11-04T11:24:14.602Z,34.10
2018-11-04T11:26:39.784Z,34.03
2018-11-04T11:29:04.950Z,33.73
2018-11-04T11:31:30.096Z,34.73
2018-11-04T11:33:55.346Z,32.77
2018-11-04T11:36:20.600Z,33.83
2018-11-04T11:38:45.796Z,34.40
2018-11-04T11:41:11.132Z,33.10
2018-11-04T11:43:36.338Z,31.73
2018-11-04T11:48:59.893Z,32.93
2018-11-04T11:51:25.022Z,32.10
2018-11-04T11:53:50.270Z,32.40
2018-11-04T11:56:15.439Z,32.83
2018-11-04T11:58:40.522Z,32.40
2018-11-04T12:01:05.763Z,31.53
2018-11-04T12:03:30.861Z,32.50
2018-11-04T12:05:55.981Z,30.50
2018-11-04T12:08:21.137Z,31.10
2018-11-04T12:10:46.238Z,30.00
2018-11-04T12:13:11.434Z,31.40
2018-11-04T12:15:36.565Z,31.77
2018-11-04T12:18:01.714Z,32.27
2018-11-04T12:20:45.803Z,31.67
2018-11-04T12:23:10.982Z,32.13
2018-11-04T12:25:36.232Z,31.37
2018-11-04T12:28:01.378Z,31.43
2018-11-04T12:30:26.508Z,31.33
2018-11-04T12:32:51.767Z,32.40
2018-11-04T12:35:17.304Z,31.77
2018-11-04T12:37:42.930Z,30.77
2018-11-04T12:40:10.415Z,30.53
2018-11-04T12:42:35.569Z,31.03
2018-11-04T12:45:00.715Z,30.80
2018-11-04T12:47:25.949Z,28.97
2018-11-04T12:50:10.153Z,31.63
2018-11-04T12:52:35.260Z,31.03
2018-11-04T12:55:00.422Z,30.53
2018-11-04T12:57:25.628Z,31.07
2018-11-04T12:59:50.758Z,31.77
2018-11-04T13:02:15.903Z,31.73
2018-11-04T13:07:36.324Z,33.50
2018-11-04T13:10:01.486Z,31.43
2018-11-04T13:12:26.541Z,32.17
2018-11-04T13:14:51.731Z,31.77
2018-11-04T13:17:16.953Z,33.73
2018-11-04T13:19:42.151Z,32.10
2018-11-04T13:22:07.301Z,32.23
2018-11-04T13:24:32.537Z,31.07
2018-11-04T13:26:57.866Z,33.07
2018-11-04T13:29:22.862Z,31.27
2018-11-04T13:31:48.077Z,32.80
2018-11-04T13:34:17.146Z,31.80
2018-11-04T13:36:42.338Z,31.77
2018-11-04T13:39:09.101Z,30.93
2018-11-04T13:41:34.211Z,33.30
2018-11-04T13:43:59.392Z,32.27
2018-11-04T13:46:24.544Z,34.97
2018-11-04T13:48:49.653Z,32.93
2018-11-04T13:51:14.842Z,34.27
2018-11-04T13:53:39.998Z,34.60
2018-11-04T13:56:05.127Z,32.90
2018-11-04T13:58:30.309Z,34.13
2018-11-04T14:00:55.577Z,33.50
2018-11-04T14:03:20.719Z,34.33
2018-11-04T14:05:45.920Z,34.97
2018-11-04T14:08:11.283Z,35.07
2018-11-04T14:10:40.641Z,34.60
2018-11-04T14:13:23.297Z,34.97
2018-11-04T14:19:11.388Z,35.57
2018-11-04T14:21:44.205Z,36.23
2018-11-04T14:45:04.427Z,36.27
2018-11-04T14:47:29.986Z,37.23
2018-11-04T14:49:59.298Z,37.37
2018-11-04T14:52:24.607Z,37.60
2018-11-04T14:54:49.824Z,37.67
2018-11-04T14:57:14.998Z,36.47
2018-11-04T14:59:40.180Z,36.67
2018-11-04T15:02:05.406Z,38.27
2018-11-04T15:04:30.647Z,37.90
2018-11-04T15:06:55.840Z,37.40
2018-11-04T15:09:21.382Z,37.97
2018-11-04T15:11:46.962Z,37.50
2018-11-04T15:14:12.780Z,40.30
2018-11-04T15:16:38.008Z,38.90
2018-11-04T15:19:03.280Z,37.80
2018-11-04T15:21:28.422Z,38.10
2018-11-04T15:23:53.672Z,38.23
2018-11-04T15:26:21.399Z,38.37
2018-11-04T15:28:46.709Z,38.37
2018-11-04T15:31:11.953Z,38.77
2018-11-04T15:33:37.254Z,40.03
2018-11-04T15:39:15.644Z,39.50
2018-11-04T15:41:40.787Z,37.67
2018-11-04T15:44:05.912Z,39.13
2018-11-04T15:46:32.244Z,39.07
2018-11-04T15:48:57.548Z,40.03
2018-11-04T15:51:22.669Z,40.63
2018-11-04T15:53:47.884Z,40.80
2018-11-04T15:56:13.004Z,41.20
2018-11-04T15:58:38.133Z,44.57
2018-11-04T16:01:03.364Z,45.90
2018-11-04T16:03:28.572Z,41.87
2018-11-04T16:06:12.680Z,40.63
2018-11-04T16:08:37.834Z,39.43
2018-11-04T16:11:02.983Z,39.93
2018-11-04T16:13:28.173Z,39.97
2018-11-04T16:15:53.348Z,40.63
2018-11-04T16:18:18.672Z,41.10
2018-11-04T16:20:43.785Z,38.60
2018-11-04T16:23:08.925Z,40.43
2018-11-04T16:25:34.236Z,40.43
2018-11-04T16:27:59.349Z,39.97
2018-11-04T16:30:43.397Z,41.40
2018-11-04T16:33:08.620Z,42.00
2018-11-04T16:35:33.816Z,39.10
2018-11-04T16:37:59.117Z,41.80
2018-11-04T16:40:24.179Z,41.27
2018-11-04T16:42:49.331Z,41.67
2018-11-04T16:45:15.925Z,43.23
2018-11-04T16:47:41.095Z,41.53
2018-11-04T16:50:18.153Z,42.90
2018-11-04T16:52:44.238Z,41.97
2018-11-04T16:55:10.388Z,40.77
2018-11-04T16:57:35.518Z,41.10
2018-11-04T17:02:37.274Z,40.60
2018-11-04T17:05:02.927Z,45.27
2018-11-04T17:07:28.019Z,42.93
2018-11-04T17:09:53.219Z,41.97
2018-11-04T17:15:00.682Z,44.33
2018-11-04T17:20:05.588Z,46.33
2018-11-04T17:22:30.862Z,43.07
2018-11-04T17:27:51.580Z,51.17
2018-11-04T17:32:55.754Z,48.77
2018-11-04T17:35:20.960Z,47.00
2018-11-04T17:37:46.588Z,45.63
2018-11-04T17:40:12.653Z,45.53
2018-11-04T17:42:43.806Z,43.67
2018-11-04T17:45:10.767Z,45.17
2018-11-04T17:47:36.045Z,45.63
2018-11-04T17:50:01.317Z,45.40
2018-11-04T17:52:26.538Z,44.27
2018-11-04T17:54:51.703Z,45.43
2018-11-04T17:57:18.632Z,43.93
2018-11-04T17:59:42.569Z,45.93
2018-11-04T18:04:44.797Z,43.97
2018-11-04T18:07:10.774Z,44.90
2018-11-04T18:09:36.013Z,43.57
2018-11-04T18:12:02.047Z,44.27
2018-11-04T18:14:29.063Z,46.00
2018-11-04T18:16:57.618Z,46.33
2018-11-04T18:22:30.919Z,43.70
2018-11-04T18:24:56.053Z,45.27
2018-11-04T18:27:21.302Z,44.20
2018-11-04T18:29:46.461Z,42.93
2018-11-04T18:32:11.649Z,45.40
2018-11-04T18:34:36.795Z,44.90
2018-11-04T18:37:01.968Z,45.17
2018-11-04T18:39:27.117Z,44.40
2018-11-04T18:41:52.265Z,44.97
2018-11-04T18:44:17.529Z,44.30
2018-11-04T18:46:42.658Z,45.53
2018-11-04T18:49:07.881Z,47.43
2018-11-04T18:51:33.084Z,43.97
2018-11-04T18:56:56.127Z,43.27
2018-11-04T18:59:21.476Z,46.37
2018-11-04T19:01:46.491Z,47.27
2018-11-04T19:04:11.601Z,45.07
2018-11-04T19:06:36.761Z,50.30
2018-11-04T19:09:01.896Z,47.50
2018-11-04T19:11:27.087Z,44.30
2018-11-04T19:13:52.328Z,44.30
2018-11-04T19:16:17.501Z,45.40
2018-11-04T19:18:43.326Z,42.97
2018-11-04T19:21:08.399Z,44.33
2018-11-04T19:23:52.557Z,43.73
2018-11-04T19:26:17.704Z,45.03
2018-11-04T19:28:42.899Z,41.97
2018-11-04T19:31:08.173Z,44.33
2018-11-04T19:33:33.223Z,42.90
2018-11-04T19:36:17.346Z,44.87
2018-11-04T19:38:42.472Z,43.30
2018-11-04T19:41:26.594Z,44.10
2018-11-04T19:43:51.856Z,42.13
2018-11-04T19:46:17.021Z,42.30
2018-11-04T19:48:42.358Z,41.73
2018-11-04T19:51:07.465Z,43.40
2018-11-04T19:53:32.619Z,42.87
2018-11-04T19:55:57.712Z,42.83
2018-11-04T19:58:22.887Z,42.57
2018-11-04T20:00:48.028Z,42.70
2018-11-04T20:03:13.146Z,41.20
2018-11-04T20:05:38.277Z,41.53
2018-11-04T20:08:03.405Z,41.57
2018-11-04T20:10:28.623Z,39.50
2018-11-04T20:13:12.388Z,41.83
2018-11-04T20:15:56.490Z,41.50
2018-11-04T20:18:40.288Z,41.30
2018-11-04T20:21:05.467Z,40.00
2018-11-04T20:23:30.578Z,40.37
2018-11-04T20:26:14.400Z,40.67
2018-11-04T20:28:39.580Z,40.23
2018-11-04T20:31:05.926Z,41.23
2018-11-04T20:33:29.853Z,39.40
2018-11-04T20:36:13.978Z,41.33
2018-11-04T20:38:57.887Z,40.77
2018-11-04T20:41:41.677Z,38.90
2018-11-04T20:44:06.893Z,40.07
2018-11-04T20:46:32.104Z,40.83
2018-11-04T20:49:17.894Z,40.70
2018-11-04T20:51:43.110Z,41.03
2018-11-04T20:54:08.331Z,41.50
2018-11-04T20:56:52.195Z,40.03
2018-11-04T20:59:17.323Z,39.47
2018-11-04T21:01:42.473Z,39.70
2018-11-04T21:04:07.917Z,39.50
2018-11-04T21:06:33.062Z,39.13
2018-11-04T21:08:58.196Z,40.97
2018-11-04T21:11:23.393Z,39.73
2018-11-04T21:13:48.568Z,40.67
2018-11-04T21:16:13.873Z,41.00
2018-11-04T21:18:38.843Z,41.30
2018-11-04T21:21:03.982Z,40.77
2018-11-04T21:23:29.171Z,40.43
2018-11-04T21:25:54.327Z,40.40
2018-11-04T21:28:21.253Z,41.63
2018-11-04T21:30:46.358Z,41.33
2018-11-04T21:33:11.471Z,42.67
2018-11-04T21:35:36.607Z,41.30
2018-11-04T21:38:01.923Z,41.60
2018-11-04T21:40:26.874Z,40.87
2018-11-04T21:42:52.235Z,40.83
2018-11-04T21:45:17.189Z,41.90
2018-11-04T21:47:42.625Z,41.50
2018-11-04T21:50:27.022Z,40.93
2018-11-04T21:53:03.905Z,42.23
2018-11-04T21:55:29.230Z,42.13
2018-11-04T21:57:54.168Z,41.63
2018-11-04T22:00:19.320Z,40.90
2018-11-04T22:02:44.554Z,41.37
2018-11-04T22:05:10.306Z,42.37
2018-11-04T22:07:35.472Z,42.87
2018-11-04T22:10:00.623Z,42.40
2018-11-04T22:12:25.740Z,42.13
2018-11-04T22:14:50.875Z,40.83
2018-11-04T22:17:15.976Z,41.00
2018-11-04T22:19:41.185Z,40.77
2018-11-04T22:22:18.111Z,41.97
2018-11-04T22:24:43.294Z,42.03
2018-11-04T22:27:08.384Z,41.23
2018-11-04T22:29:33.444Z,40.90
2018-11-04T22:31:58.561Z,41.47
2018-11-04T22:34:23.637Z,42.47
2018-11-04T22:36:48.761Z,40.27
2018-11-04T22:39:13.874Z,41.03
2018-11-04T22:41:38.976Z,39.73
2018-11-04T22:44:04.068Z,42.03
2018-11-04T22:49:25.063Z,40.67
2018-11-04T22:51:51.050Z,40.60
2018-11-04T22:54:16.233Z,41.47
2018-11-04T22:56:41.430Z,42.83
2018-11-04T22:59:06.844Z,43.90
2018-11-04T23:01:32.110Z,42.20
2018-11-04T23:03:57.425Z,44.73
2018-11-04T23:06:22.425Z,43.93
2018-11-04T23:08:47.655Z,44.60
2018-11-04T23:11:12.805Z,44.47
2018-11-04T23:13:57.241Z,46.23
2018-11-04T23:16:22.656Z,43.63
2018-11-04T23:21:43.199Z,44.50
2018-11-04T23:24:08.552Z,43.13
2018-11-04T23:26:33.653Z,44.90
2018-11-04T23:28:58.786Z,43.40
2018-11-04T23:31:23.903Z,46.03
2018-11-04T23:33:49.049Z,45.23
2018-11-04T23:36:14.193Z,45.23
2018-11-04T23:38:39.293Z,45.73
2018-11-04T23:41:04.405Z,44.93
2018-11-04T23:43:29.555Z,45.23
2018-11-04T23:45:54.721Z,45.67
2018-11-04T23:48:19.815Z,44.73
2018-11-04T23:50:44.917Z,44.57
2018-11-04T23:53:10.077Z,46.83
2018-11-04T23:55:35.207Z,44.50
2018-11-04T23:58:00.334Z,47.03
